sensor_id;sensor_type;location;lat;lon;timestamp;P1;durP1;ratioP1;P2;durP2;ratioP2
26191;SDS011;13935;55.672;37.764;2022-09-09T00:00:05;4.93;;;2.25;;
26191;SDS011;13935;55.672;37.764;2022-09-09T00:03:00;5.18;;;2.20;;
26191;SDS011;13935;55.672;37.764;2022-09-09T00:05:32;6.28;;;2.88;;
26191;SDS011;13935;55.672;37.764;2022-09-09T00:07:15;4.72;;;2.40;;
26191;SDS011;13935;55.672;37.764;2022-09-09T00:13:05;6.43;;;2.60;;
26191;SDS011;13935;55.672;37.764;2022-09-09T00:14:27;5.80;;;2.60;;
26191;SDS011;13935;55.672;37.764;2022-09-09T00:16:17;6.32;;;2.67;;
26191;SDS011;13935;55.672;37.764;2022-09-09T00:19:26;5.03;;;2.42;;
26191;SDS011;13935;55.672;37.764;2022-09-09T00:20:49;4.43;;;2.10;;
26191;SDS011;13935;55.672;37.764;2022-09-09T00:22:15;6.18;;;2.35;;
26191;SDS011;13935;55.672;37.764;2022-09-09T00:23:37;5.90;;;2.35;;
26191;SDS011;13935;55.672;37.764;2022-09-09T00:24:51;4.97;;;2.65;;
26191;SDS011;13935;55.672;37.764;2022-09-09T00:27:36;5.18;;;2.22;;
26191;SDS011;13935;55.672;37.764;2022-09-09T00:28:46;5.00;;;2.30;;
26191;SDS011;13935;55.672;37.764;2022-09-09T00:29:57;8.95;;;2.53;;
26191;SDS011;13935;55.672;37.764;2022-09-09T00:31:28;4.57;;;2.35;;
26191;SDS011;13935;55.672;37.764;2022-09-09T00:32:34;4.50;;;2.47;;
26191;SDS011;13935;55.672;37.764;2022-09-09T00:33:41;4.15;;;2.20;;
26191;SDS011;13935;55.672;37.764;2022-09-09T00:34:47;4.70;;;2.33;;
26191;SDS011;13935;55.672;37.764;2022-09-09T00:35:57;5.25;;;2.63;;
26191;SDS011;13935;55.672;37.764;2022-09-09T00:37:02;4.78;;;2.33;;
26191;SDS011;13935;55.672;37.764;2022-09-09T00:38:12;5.07;;;2.47;;
26191;SDS011;13935;55.672;37.764;2022-09-09T00:40:39;6.45;;;2.53;;
26191;SDS011;13935;55.672;37.764;2022-09-09T00:42:10;5.60;;;2.42;;
26191;SDS011;13935;55.672;37.764;2022-09-09T00:43:27;5.93;;;2.13;;
26191;SDS011;13935;55.672;37.764;2022-09-09T00:44:32;7.78;;;2.63;;
26191;SDS011;13935;55.672;37.764;2022-09-09T00:47:04;6.35;;;2.80;;
26191;SDS011;13935;55.672;37.764;2022-09-09T00:55:48;6.15;;;2.50;;
26191;SDS011;13935;55.672;37.764;2022-09-09T00:58:13;5.63;;;2.42;;
26191;SDS011;13935;55.672;37.764;2022-09-09T00:59:27;6.18;;;2.83;;
26191;SDS011;13935;55.672;37.764;2022-09-09T01:00:57;5.45;;;2.78;;
26191;SDS011;13935;55.672;37.764;2022-09-09T01:02:25;4.68;;;2.38;;
26191;SDS011;13935;55.672;37.764;2022-09-09T01:03:37;6.28;;;2.42;;
26191;SDS011;13935;55.672;37.764;2022-09-09T01:04:42;4.15;;;2.47;;
26191;SDS011;13935;55.672;37.764;2022-09-09T01:05:49;6.97;;;2.78;;
26191;SDS011;13935;55.672;37.764;2022-09-09T01:07:02;4.93;;;2.30;;
26191;SDS011;13935;55.672;37.764;2022-09-09T01:09:21;3.90;;;2.20;;
26191;SDS011;13935;55.672;37.764;2022-09-09T01:13:17;5.40;;;2.80;;
26191;SDS011;13935;55.672;37.764;2022-09-09T01:15:39;4.07;;;2.25;;
26191;SDS011;13935;55.672;37.764;2022-09-09T01:16:48;4.90;;;2.58;;
26191;SDS011;13935;55.672;37.764;2022-09-09T01:18:05;6.30;;;2.47;;
26191;SDS011;13935;55.672;37.764;2022-09-09T01:19:26;5.55;;;2.38;;
26191;SDS011;13935;55.672;37.764;2022-09-09T01:22:29;6.18;;;2.50;;
26191;SDS011;13935;55.672;37.764;2022-09-09T01:26:56;5.22;;;2.92;;
26191;SDS011;13935;55.672;37.764;2022-09-09T01:28:04;6.30;;;3.08;;
26191;SDS011;13935;55.672;37.764;2022-09-09T01:29:17;7.47;;;3.30;;
26191;SDS011;13935;55.672;37.764;2022-09-09T01:30:25;5.38;;;2.70;;
26191;SDS011;13935;55.672;37.764;2022-09-09T01:31:34;7.00;;;3.53;;
26191;SDS011;13935;55.672;37.764;2022-09-09T01:32:46;7.22;;;3.22;;
26191;SDS011;13935;55.672;37.764;2022-09-09T01:33:52;9.45;;;3.88;;
26191;SDS011;13935;55.672;37.764;2022-09-09T01:35:00;7.63;;;3.20;;
26191;SDS011;13935;55.672;37.764;2022-09-09T01:36:06;6.38;;;3.60;;
26191;SDS011;13935;55.672;37.764;2022-09-09T01:37:21;6.10;;;3.25;;
26191;SDS011;13935;55.672;37.764;2022-09-09T01:38:23;7.38;;;3.00;;
26191;SDS011;13935;55.672;37.764;2022-09-09T01:39:27;6.93;;;3.42;;
26191;SDS011;13935;55.672;37.764;2022-09-09T01:41:47;5.90;;;2.92;;
26191;SDS011;13935;55.672;37.764;2022-09-09T01:42:59;5.40;;;3.20;;
26191;SDS011;13935;55.672;37.764;2022-09-09T01:44:01;5.88;;;3.08;;
26191;SDS011;13935;55.672;37.764;2022-09-09T01:45:08;5.43;;;2.95;;
26191;SDS011;13935;55.672;37.764;2022-09-09T01:46:11;7.53;;;3.47;;
26191;SDS011;13935;55.672;37.764;2022-09-09T01:47:17;6.38;;;3.42;;
26191;SDS011;13935;55.672;37.764;2022-09-09T01:48:47;5.95;;;3.33;;
26191;SDS011;13935;55.672;37.764;2022-09-09T01:49:52;5.65;;;3.42;;
26191;SDS011;13935;55.672;37.764;2022-09-09T01:50:58;8.38;;;3.45;;
26191;SDS011;13935;55.672;37.764;2022-09-09T01:52:03;7.00;;;3.33;;
26191;SDS011;13935;55.672;37.764;2022-09-09T01:53:12;6.55;;;3.20;;
26191;SDS011;13935;55.672;37.764;2022-09-09T01:54:16;6.97;;;3.20;;
26191;SDS011;13935;55.672;37.764;2022-09-09T01:55:21;5.63;;;3.45;;
26191;SDS011;13935;55.672;37.764;2022-09-09T01:57:47;5.95;;;3.35;;
26191;SDS011;13935;55.672;37.764;2022-09-09T02:00:33;6.22;;;3.30;;
26191;SDS011;13935;55.672;37.764;2022-09-09T02:04:23;4.80;;;2.90;;
26191;SDS011;13935;55.672;37.764;2022-09-09T02:07:06;5.53;;;3.25;;
26191;SDS011;13935;55.672;37.764;2022-09-09T02:08:45;8.35;;;3.47;;
26191;SDS011;13935;55.672;37.764;2022-09-09T02:09:55;5.35;;;3.08;;
26191;SDS011;13935;55.672;37.764;2022-09-09T02:12:23;5.63;;;3.03;;
26191;SDS011;13935;55.672;37.764;2022-09-09T02:13:32;7.10;;;3.47;;
26191;SDS011;13935;55.672;37.764;2022-09-09T02:14:50;7.30;;;2.90;;
26191;SDS011;13935;55.672;37.764;2022-09-09T02:16:03;6.13;;;3.28;;
26191;SDS011;13935;55.672;37.764;2022-09-09T02:17:10;8.85;;;3.60;;
26191;SDS011;13935;55.672;37.764;2022-09-09T02:18:44;5.72;;;3.03;;
26191;SDS011;13935;55.672;37.764;2022-09-09T02:20:23;5.82;;;3.30;;
26191;SDS011;13935;55.672;37.764;2022-09-09T02:21:33;6.32;;;3.17;;
26191;SDS011;13935;55.672;37.764;2022-09-09T02:22:38;8.43;;;3.35;;
26191;SDS011;13935;55.672;37.764;2022-09-09T02:23:46;5.50;;;2.95;;
26191;SDS011;13935;55.672;37.764;2022-09-09T02:24:56;7.03;;;3.65;;
26191;SDS011;13935;55.672;37.764;2022-09-09T02:26:04;6.25;;;3.20;;
26191;SDS011;13935;55.672;37.764;2022-09-09T02:27:09;7.72;;;3.58;;
26191;SDS011;13935;55.672;37.764;2022-09-09T02:28:14;5.30;;;3.20;;
26191;SDS011;13935;55.672;37.764;2022-09-09T02:29:20;7.53;;;3.30;;
26191;SDS011;13935;55.672;37.764;2022-09-09T02:30:29;6.90;;;3.20;;
26191;SDS011;13935;55.672;37.764;2022-09-09T02:31:34;5.72;;;3.15;;
26191;SDS011;13935;55.672;37.764;2022-09-09T02:32:43;7.32;;;3.45;;
26191;SDS011;13935;55.672;37.764;2022-09-09T02:33:56;7.18;;;3.67;;
26191;SDS011;13935;55.672;37.764;2022-09-09T02:35:07;6.72;;;3.28;;
26191;SDS011;13935;55.672;37.764;2022-09-09T02:36:14;5.75;;;3.50;;
26191;SDS011;13935;55.672;37.764;2022-09-09T02:37:19;5.68;;;3.47;;
26191;SDS011;13935;55.672;37.764;2022-09-09T02:38:27;6.57;;;3.25;;
26191;SDS011;13935;55.672;37.764;2022-09-09T02:39:38;7.45;;;4.00;;
26191;SDS011;13935;55.672;37.764;2022-09-09T02:40:49;7.53;;;3.67;;
26191;SDS011;13935;55.672;37.764;2022-09-09T02:41:51;5.63;;;3.28;;
26191;SDS011;13935;55.672;37.764;2022-09-09T02:43:03;7.18;;;3.55;;
26191;SDS011;13935;55.672;37.764;2022-09-09T02:44:13;6.10;;;3.70;;
26191;SDS011;13935;55.672;37.764;2022-09-09T02:45:25;6.80;;;3.78;;
26191;SDS011;13935;55.672;37.764;2022-09-09T02:51:10;9.45;;;4.28;;
26191;SDS011;13935;55.672;37.764;2022-09-09T02:52:21;10.57;;;4.10;;
26191;SDS011;13935;55.672;37.764;2022-09-09T02:54:38;6.93;;;3.65;;
26191;SDS011;13935;55.672;37.764;2022-09-09T02:57:07;10.45;;;3.92;;
26191;SDS011;13935;55.672;37.764;2022-09-09T02:58:20;7.85;;;4.03;;
26191;SDS011;13935;55.672;37.764;2022-09-09T02:59:31;7.07;;;3.70;;
26191;SDS011;13935;55.672;37.764;2022-09-09T03:00:33;6.93;;;4.10;;
26191;SDS011;13935;55.672;37.764;2022-09-09T03:01:38;7.25;;;3.88;;
26191;SDS011;13935;55.672;37.764;2022-09-09T03:02:43;7.60;;;3.60;;
26191;SDS011;13935;55.672;37.764;2022-09-09T03:03:47;8.73;;;3.78;;
26191;SDS011;13935;55.672;37.764;2022-09-09T03:04:52;8.50;;;3.90;;
26191;SDS011;13935;55.672;37.764;2022-09-09T03:05:55;6.97;;;3.50;;
26191;SDS011;13935;55.672;37.764;2022-09-09T03:07:00;9.45;;;4.13;;
26191;SDS011;13935;55.672;37.764;2022-09-09T03:08:03;6.75;;;3.47;;
26191;SDS011;13935;55.672;37.764;2022-09-09T03:09:07;7.35;;;3.22;;
26191;SDS011;13935;55.672;37.764;2022-09-09T03:10:12;8.20;;;3.80;;
26191;SDS011;13935;55.672;37.764;2022-09-09T03:11:16;7.68;;;4.10;;
26191;SDS011;13935;55.672;37.764;2022-09-09T03:12:19;9.05;;;3.90;;
26191;SDS011;13935;55.672;37.764;2022-09-09T03:13:22;6.70;;;3.92;;
26191;SDS011;13935;55.672;37.764;2022-09-09T03:14:25;6.45;;;4.00;;
26191;SDS011;13935;55.672;37.764;2022-09-09T03:15:29;7.70;;;3.67;;
26191;SDS011;13935;55.672;37.764;2022-09-09T03:16:32;8.68;;;4.03;;
26191;SDS011;13935;55.672;37.764;2022-09-09T03:17:36;10.10;;;4.38;;
26191;SDS011;13935;55.672;37.764;2022-09-09T03:18:42;7.60;;;3.95;;
26191;SDS011;13935;55.672;37.764;2022-09-09T03:19:48;8.73;;;3.88;;
26191;SDS011;13935;55.672;37.764;2022-09-09T03:20:52;7.25;;;3.80;;
26191;SDS011;13935;55.672;37.764;2022-09-09T03:21:57;10.35;;;4.35;;
26191;SDS011;13935;55.672;37.764;2022-09-09T03:23:00;6.57;;;3.88;;
26191;SDS011;13935;55.672;37.764;2022-09-09T03:24:04;7.50;;;4.20;;
26191;SDS011;13935;55.672;37.764;2022-09-09T03:25:07;7.47;;;3.97;;
26191;SDS011;13935;55.672;37.764;2022-09-09T03:26:10;8.18;;;4.13;;
26191;SDS011;13935;55.672;37.764;2022-09-09T03:28:22;7.10;;;3.60;;
26191;SDS011;13935;55.672;37.764;2022-09-09T03:29:25;10.00;;;3.85;;
26191;SDS011;13935;55.672;37.764;2022-09-09T03:30:30;7.60;;;3.60;;
26191;SDS011;13935;55.672;37.764;2022-09-09T03:31:35;10.00;;;4.28;;
26191;SDS011;13935;55.672;37.764;2022-09-09T03:32:57;9.27;;;4.35;;
26191;SDS011;13935;55.672;37.764;2022-09-09T03:34:05;7.45;;;4.00;;
26191;SDS011;13935;55.672;37.764;2022-09-09T03:35:09;7.40;;;3.65;;
26191;SDS011;13935;55.672;37.764;2022-09-09T03:36:13;7.60;;;4.20;;
26191;SDS011;13935;55.672;37.764;2022-09-09T03:37:16;6.78;;;4.15;;
26191;SDS011;13935;55.672;37.764;2022-09-09T03:38:19;11.77;;;5.10;;
26191;SDS011;13935;55.672;37.764;2022-09-09T03:39:22;8.68;;;4.32;;
26191;SDS011;13935;55.672;37.764;2022-09-09T03:40:27;7.32;;;4.05;;
26191;SDS011;13935;55.672;37.764;2022-09-09T03:41:30;8.73;;;4.50;;
26191;SDS011;13935;55.672;37.764;2022-09-09T03:42:36;10.65;;;4.35;;
26191;SDS011;13935;55.672;37.764;2022-09-09T03:43:38;7.25;;;3.80;;
26191;SDS011;13935;55.672;37.764;2022-09-09T03:44:44;7.57;;;3.90;;
26191;SDS011;13935;55.672;37.764;2022-09-09T03:45:53;8.23;;;4.40;;
26191;SDS011;13935;55.672;37.764;2022-09-09T03:47:00;6.10;;;3.80;;
26191;SDS011;13935;55.672;37.764;2022-09-09T03:48:02;8.93;;;3.78;;
26191;SDS011;13935;55.672;37.764;2022-09-09T03:49:08;9.55;;;4.30;;
26191;SDS011;13935;55.672;37.764;2022-09-09T03:50:12;7.53;;;4.38;;
26191;SDS011;13935;55.672;37.764;2022-09-09T03:51:20;6.78;;;3.92;;
26191;SDS011;13935;55.672;37.764;2022-09-09T03:52:25;9.65;;;4.47;;
26191;SDS011;13935;55.672;37.764;2022-09-09T03:53:29;9.68;;;4.20;;
26191;SDS011;13935;55.672;37.764;2022-09-09T03:54:32;6.35;;;3.85;;
26191;SDS011;13935;55.672;37.764;2022-09-09T03:55:34;8.38;;;3.95;;
26191;SDS011;13935;55.672;37.764;2022-09-09T03:56:39;8.57;;;4.05;;
26191;SDS011;13935;55.672;37.764;2022-09-09T03:57:46;11.88;;;4.05;;
26191;SDS011;13935;55.672;37.764;2022-09-09T03:58:49;7.57;;;4.40;;
26191;SDS011;13935;55.672;37.764;2022-09-09T03:59:51;8.00;;;4.18;;
26191;SDS011;13935;55.672;37.764;2022-09-09T04:00:54;7.93;;;4.13;;
26191;SDS011;13935;55.672;37.764;2022-09-09T04:02:02;7.82;;;3.95;;
26191;SDS011;13935;55.672;37.764;2022-09-09T04:03:05;8.60;;;4.35;;
26191;SDS011;13935;55.672;37.764;2022-09-09T04:04:07;8.75;;;4.45;;
26191;SDS011;13935;55.672;37.764;2022-09-09T04:05:11;7.28;;;3.88;;
26191;SDS011;13935;55.672;37.764;2022-09-09T04:06:16;6.85;;;3.92;;
26191;SDS011;13935;55.672;37.764;2022-09-09T04:07:23;8.55;;;4.07;;
26191;SDS011;13935;55.672;37.764;2022-09-09T04:08:28;8.40;;;3.50;;
26191;SDS011;13935;55.672;37.764;2022-09-09T04:09:35;6.65;;;3.50;;
26191;SDS011;13935;55.672;37.764;2022-09-09T04:10:37;7.22;;;3.58;;
26191;SDS011;13935;55.672;37.764;2022-09-09T04:11:39;6.50;;;3.80;;
26191;SDS011;13935;55.672;37.764;2022-09-09T04:12:42;6.78;;;3.38;;
26191;SDS011;13935;55.672;37.764;2022-09-09T04:13:49;5.85;;;3.47;;
26191;SDS011;13935;55.672;37.764;2022-09-09T04:14:53;8.88;;;3.45;;
26191;SDS011;13935;55.672;37.764;2022-09-09T04:15:56;7.60;;;3.28;;
26191;SDS011;13935;55.672;37.764;2022-09-09T04:17:01;7.57;;;3.15;;
26191;SDS011;13935;55.672;37.764;2022-09-09T04:18:08;7.45;;;3.78;;
26191;SDS011;13935;55.672;37.764;2022-09-09T04:19:18;10.93;;;3.65;;
26191;SDS011;13935;55.672;37.764;2022-09-09T04:20:20;4.63;;;3.25;;
26191;SDS011;13935;55.672;37.764;2022-09-09T04:21:23;7.40;;;3.10;;
26191;SDS011;13935;55.672;37.764;2022-09-09T04:22:29;5.25;;;3.10;;
26191;SDS011;13935;55.672;37.764;2022-09-09T04:23:34;6.38;;;3.60;;
26191;SDS011;13935;55.672;37.764;2022-09-09T04:24:38;8.20;;;3.30;;
26191;SDS011;13935;55.672;37.764;2022-09-09T04:25:45;5.10;;;3.08;;
26191;SDS011;13935;55.672;37.764;2022-09-09T04:26:50;7.22;;;3.35;;
26191;SDS011;13935;55.672;37.764;2022-09-09T04:27:53;5.63;;;3.22;;
26191;SDS011;13935;55.672;37.764;2022-09-09T04:29:00;6.00;;;3.20;;
26191;SDS011;13935;55.672;37.764;2022-09-09T04:30:05;6.40;;;3.03;;
26191;SDS011;13935;55.672;37.764;2022-09-09T04:31:12;4.63;;;3.00;;
26191;SDS011;13935;55.672;37.764;2022-09-09T04:32:20;8.55;;;3.05;;
26191;SDS011;13935;55.672;37.764;2022-09-09T04:33:23;5.93;;;3.35;;
26191;SDS011;13935;55.672;37.764;2022-09-09T04:34:28;4.90;;;3.42;;
26191;SDS011;13935;55.672;37.764;2022-09-09T04:35:32;5.88;;;3.40;;
26191;SDS011;13935;55.672;37.764;2022-09-09T04:36:36;6.25;;;3.33;;
26191;SDS011;13935;55.672;37.764;2022-09-09T04:37:39;7.32;;;3.63;;
26191;SDS011;13935;55.672;37.764;2022-09-09T04:38:42;6.20;;;3.00;;
26191;SDS011;13935;55.672;37.764;2022-09-09T04:39:46;5.53;;;3.08;;
26191;SDS011;13935;55.672;37.764;2022-09-09T04:40:49;6.65;;;2.85;;
26191;SDS011;13935;55.672;37.764;2022-09-09T04:41:53;7.85;;;3.38;;
26191;SDS011;13935;55.672;37.764;2022-09-09T04:43:00;8.80;;;3.22;;
26191;SDS011;13935;55.672;37.764;2022-09-09T04:44:02;7.32;;;3.35;;
26191;SDS011;13935;55.672;37.764;2022-09-09T04:45:06;6.82;;;3.03;;
26191;SDS011;13935;55.672;37.764;2022-09-09T04:46:09;7.82;;;3.85;;
26191;SDS011;13935;55.672;37.764;2022-09-09T04:47:11;7.28;;;2.92;;
26191;SDS011;13935;55.672;37.764;2022-09-09T04:48:13;5.50;;;2.88;;
26191;SDS011;13935;55.672;37.764;2022-09-09T04:49:16;8.82;;;3.40;;
26191;SDS011;13935;55.672;37.764;2022-09-09T04:50:18;5.32;;;3.28;;
26191;SDS011;13935;55.672;37.764;2022-09-09T04:51:21;7.70;;;3.75;;
26191;SDS011;13935;55.672;37.764;2022-09-09T04:52:25;12.68;;;3.85;;
26191;SDS011;13935;55.672;37.764;2022-09-09T04:53:27;8.93;;;3.30;;
26191;SDS011;13935;55.672;37.764;2022-09-09T04:54:29;7.63;;;3.20;;
26191;SDS011;13935;55.672;37.764;2022-09-09T04:55:32;5.47;;;3.00;;
26191;SDS011;13935;55.672;37.764;2022-09-09T04:56:36;8.02;;;3.58;;
26191;SDS011;13935;55.672;37.764;2022-09-09T04:57:39;7.72;;;3.40;;
26191;SDS011;13935;55.672;37.764;2022-09-09T04:58:41;5.88;;;2.88;;
26191;SDS011;13935;55.672;37.764;2022-09-09T04:59:45;5.63;;;3.78;;
26191;SDS011;13935;55.672;37.764;2022-09-09T05:00:48;5.35;;;3.33;;
26191;SDS011;13935;55.672;37.764;2022-09-09T05:01:51;7.85;;;2.97;;
26191;SDS011;13935;55.672;37.764;2022-09-09T05:02:56;5.72;;;3.13;;
26191;SDS011;13935;55.672;37.764;2022-09-09T05:03:58;6.40;;;3.45;;
26191;SDS011;13935;55.672;37.764;2022-09-09T05:05:00;5.35;;;3.00;;
26191;SDS011;13935;55.672;37.764;2022-09-09T05:06:14;7.20;;;3.60;;
26191;SDS011;13935;55.672;37.764;2022-09-09T05:07:19;8.60;;;3.10;;
26191;SDS011;13935;55.672;37.764;2022-09-09T05:08:21;7.45;;;3.42;;
26191;SDS011;13935;55.672;37.764;2022-09-09T05:09:24;12.35;;;3.45;;
26191;SDS011;13935;55.672;37.764;2022-09-09T05:10:26;6.60;;;3.20;;
26191;SDS011;13935;55.672;37.764;2022-09-09T05:11:29;5.97;;;3.40;;
26191;SDS011;13935;55.672;37.764;2022-09-09T05:12:52;8.65;;;3.78;;
26191;SDS011;13935;55.672;37.764;2022-09-09T05:15:02;8.88;;;3.70;;
26191;SDS011;13935;55.672;37.764;2022-09-09T05:16:05;6.60;;;3.08;;
26191;SDS011;13935;55.672;37.764;2022-09-09T05:17:07;8.25;;;3.13;;
26191;SDS011;13935;55.672;37.764;2022-09-09T05:18:11;8.50;;;2.95;;
26191;SDS011;13935;55.672;37.764;2022-09-09T05:19:14;5.85;;;2.78;;
26191;SDS011;13935;55.672;37.764;2022-09-09T05:20:21;5.45;;;3.53;;
26191;SDS011;13935;55.672;37.764;2022-09-09T05:21:24;4.60;;;2.75;;
26191;SDS011;13935;55.672;37.764;2022-09-09T05:22:29;6.18;;;3.00;;
26191;SDS011;13935;55.672;37.764;2022-09-09T05:23:32;5.10;;;2.90;;
26191;SDS011;13935;55.672;37.764;2022-09-09T05:24:35;5.10;;;3.00;;
26191;SDS011;13935;55.672;37.764;2022-09-09T05:25:38;4.85;;;2.97;;
26191;SDS011;13935;55.672;37.764;2022-09-09T05:26:42;5.05;;;2.67;;
26191;SDS011;13935;55.672;37.764;2022-09-09T05:27:45;6.38;;;2.70;;
26191;SDS011;13935;55.672;37.764;2022-09-09T05:28:48;4.82;;;2.72;;
26191;SDS011;13935;55.672;37.764;2022-09-09T05:29:50;5.03;;;2.92;;
26191;SDS011;13935;55.672;37.764;2022-09-09T05:30:59;4.55;;;2.55;;
26191;SDS011;13935;55.672;37.764;2022-09-09T05:32:08;5.30;;;3.05;;
26191;SDS011;13935;55.672;37.764;2022-09-09T05:33:17;5.45;;;2.50;;
26191;SDS011;13935;55.672;37.764;2022-09-09T05:34:22;4.43;;;2.50;;
26191;SDS011;13935;55.672;37.764;2022-09-09T05:35:24;6.57;;;2.92;;
26191;SDS011;13935;55.672;37.764;2022-09-09T05:36:27;4.55;;;2.60;;
26191;SDS011;13935;55.672;37.764;2022-09-09T05:37:30;3.88;;;2.47;;
26191;SDS011;13935;55.672;37.764;2022-09-09T05:38:35;6.68;;;2.50;;
26191;SDS011;13935;55.672;37.764;2022-09-09T05:39:38;4.40;;;2.47;;
26191;SDS011;13935;55.672;37.764;2022-09-09T05:40:46;4.78;;;2.50;;
26191;SDS011;13935;55.672;37.764;2022-09-09T05:42:51;6.70;;;2.70;;
26191;SDS011;13935;55.672;37.764;2022-09-09T05:43:55;5.35;;;2.80;;
26191;SDS011;13935;55.672;37.764;2022-09-09T05:45:00;6.65;;;2.90;;
26191;SDS011;13935;55.672;37.764;2022-09-09T05:46:06;6.40;;;2.53;;
26191;SDS011;13935;55.672;37.764;2022-09-09T05:47:11;6.95;;;2.67;;
26191;SDS011;13935;55.672;37.764;2022-09-09T05:48:15;4.63;;;2.45;;
26191;SDS011;13935;55.672;37.764;2022-09-09T05:49:18;5.57;;;2.47;;
26191;SDS011;13935;55.672;37.764;2022-09-09T05:50:22;5.70;;;2.47;;
26191;SDS011;13935;55.672;37.764;2022-09-09T05:51:26;5.68;;;2.40;;
26191;SDS011;13935;55.672;37.764;2022-09-09T05:52:33;4.43;;;2.05;;
26191;SDS011;13935;55.672;37.764;2022-09-09T05:53:36;5.00;;;2.25;;
26191;SDS011;13935;55.672;37.764;2022-09-09T05:54:38;4.18;;;1.83;;
26191;SDS011;13935;55.672;37.764;2022-09-09T05:55:40;5.40;;;2.10;;
26191;SDS011;13935;55.672;37.764;2022-09-09T05:56:44;5.07;;;2.35;;
26191;SDS011;13935;55.672;37.764;2022-09-09T05:57:52;5.13;;;2.17;;
26191;SDS011;13935;55.672;37.764;2022-09-09T05:58:54;4.43;;;1.80;;
26191;SDS011;13935;55.672;37.764;2022-09-09T05:59:58;3.03;;;1.65;;
26191;SDS011;13935;55.672;37.764;2022-09-09T06:01:02;4.60;;;2.15;;
26191;SDS011;13935;55.672;37.764;2022-09-09T06:02:09;3.30;;;1.70;;
26191;SDS011;13935;55.672;37.764;2022-09-09T06:03:12;7.30;;;2.20;;
26191;SDS011;13935;55.672;37.764;2022-09-09T06:04:14;3.95;;;2.22;;
26191;SDS011;13935;55.672;37.764;2022-09-09T06:05:16;2.97;;;1.60;;
26191;SDS011;13935;55.672;37.764;2022-09-09T06:06:21;4.63;;;2.08;;
26191;SDS011;13935;55.672;37.764;2022-09-09T06:07:25;4.68;;;1.70;;
26191;SDS011;13935;55.672;37.764;2022-09-09T06:08:28;6.03;;;2.40;;
26191;SDS011;13935;55.672;37.764;2022-09-09T06:09:30;5.68;;;2.00;;
26191;SDS011;13935;55.672;37.764;2022-09-09T06:10:33;4.57;;;2.08;;
26191;SDS011;13935;55.672;37.764;2022-09-09T06:11:37;3.85;;;2.00;;
26191;SDS011;13935;55.672;37.764;2022-09-09T06:12:41;5.75;;;2.00;;
26191;SDS011;13935;55.672;37.764;2022-09-09T06:13:46;4.78;;;1.70;;
26191;SDS011;13935;55.672;37.764;2022-09-09T06:14:51;2.45;;;1.25;;
26191;SDS011;13935;55.672;37.764;2022-09-09T06:15:53;2.38;;;1.35;;
26191;SDS011;13935;55.672;37.764;2022-09-09T06:16:56;3.17;;;1.30;;
26191;SDS011;13935;55.672;37.764;2022-09-09T06:18:02;3.05;;;1.27;;
26191;SDS011;13935;55.672;37.764;2022-09-09T06:19:05;2.80;;;1.35;;
26191;SDS011;13935;55.672;37.764;2022-09-09T06:20:08;3.50;;;1.20;;
26191;SDS011;13935;55.672;37.764;2022-09-09T06:21:21;3.88;;;1.60;;
26191;SDS011;13935;55.672;37.764;2022-09-09T06:22:25;2.22;;;1.15;;
26191;SDS011;13935;55.672;37.764;2022-09-09T06:23:27;2.83;;;1.20;;
26191;SDS011;13935;55.672;37.764;2022-09-09T06:24:32;3.00;;;1.10;;
26191;SDS011;13935;55.672;37.764;2022-09-09T06:25:36;1.85;;;0.85;;
26191;SDS011;13935;55.672;37.764;2022-09-09T06:26:42;2.50;;;1.20;;
26191;SDS011;13935;55.672;37.764;2022-09-09T06:27:52;4.68;;;1.60;;
26191;SDS011;13935;55.672;37.764;2022-09-09T06:28:54;4.32;;;1.90;;
26191;SDS011;13935;55.672;37.764;2022-09-09T06:29:59;4.72;;;2.17;;
26191;SDS011;13935;55.672;37.764;2022-09-09T06:31:05;7.03;;;2.78;;
26191;SDS011;13935;55.672;37.764;2022-09-09T06:32:08;3.85;;;1.33;;
26191;SDS011;13935;55.672;37.764;2022-09-09T06:33:10;4.55;;;1.20;;
26191;SDS011;13935;55.672;37.764;2022-09-09T06:34:13;2.58;;;1.13;;
26191;SDS011;13935;55.672;37.764;2022-09-09T06:35:19;4.32;;;1.30;;
26191;SDS011;13935;55.672;37.764;2022-09-09T06:36:22;1.95;;;1.10;;
26191;SDS011;13935;55.672;37.764;2022-09-09T06:37:26;2.50;;;1.10;;
26191;SDS011;13935;55.672;37.764;2022-09-09T06:38:29;1.83;;;1.15;;
26191;SDS011;13935;55.672;37.764;2022-09-09T06:39:31;7.22;;;1.25;;
26191;SDS011;13935;55.672;37.764;2022-09-09T06:40:34;1.88;;;1.10;;
26191;SDS011;13935;55.672;37.764;2022-09-09T06:41:37;5.78;;;1.15;;
26191;SDS011;13935;55.672;37.764;2022-09-09T06:42:44;1.95;;;1.20;;
26191;SDS011;13935;55.672;37.764;2022-09-09T06:44:24;2.35;;;0.98;;
26191;SDS011;13935;55.672;37.764;2022-09-09T06:45:33;1.63;;;0.75;;
26191;SDS011;13935;55.672;37.764;2022-09-09T06:46:38;3.05;;;1.00;;
26191;SDS011;13935;55.672;37.764;2022-09-09T06:47:43;2.25;;;1.05;;
26191;SDS011;13935;55.672;37.764;2022-09-09T06:48:46;1.98;;;1.02;;
26191;SDS011;13935;55.672;37.764;2022-09-09T06:49:50;2.47;;;1.08;;
26191;SDS011;13935;55.672;37.764;2022-09-09T06:51:05;2.80;;;1.00;;
26191;SDS011;13935;55.672;37.764;2022-09-09T06:52:10;1.90;;;1.00;;
26191;SDS011;13935;55.672;37.764;2022-09-09T06:53:16;2.70;;;0.80;;
26191;SDS011;13935;55.672;37.764;2022-09-09T06:54:23;2.20;;;0.90;;
26191;SDS011;13935;55.672;37.764;2022-09-09T06:55:27;1.60;;;0.80;;
26191;SDS011;13935;55.672;37.764;2022-09-09T06:56:31;1.42;;;0.80;;
26191;SDS011;13935;55.672;37.764;2022-09-09T06:57:35;1.23;;;0.90;;
26191;SDS011;13935;55.672;37.764;2022-09-09T06:58:56;2.10;;;0.80;;
26191;SDS011;13935;55.672;37.764;2022-09-09T07:00:06;1.55;;;1.05;;
26191;SDS011;13935;55.672;37.764;2022-09-09T07:01:10;2.30;;;0.93;;
26191;SDS011;13935;55.672;37.764;2022-09-09T07:02:16;2.55;;;1.55;;
26191;SDS011;13935;55.672;37.764;2022-09-09T07:03:18;3.50;;;1.05;;
26191;SDS011;13935;55.672;37.764;2022-09-09T07:04:20;1.58;;;0.90;;
26191;SDS011;13935;55.672;37.764;2022-09-09T07:05:22;2.65;;;1.00;;
26191;SDS011;13935;55.672;37.764;2022-09-09T07:06:27;2.08;;;1.00;;
26191;SDS011;13935;55.672;37.764;2022-09-09T07:07:32;2.45;;;1.17;;
26191;SDS011;13935;55.672;37.764;2022-09-09T07:08:35;1.65;;;0.90;;
26191;SDS011;13935;55.672;37.764;2022-09-09T07:09:37;1.20;;;0.70;;
26191;SDS011;13935;55.672;37.764;2022-09-09T07:10:39;1.63;;;0.85;;
26191;SDS011;13935;55.672;37.764;2022-09-09T07:11:42;2.00;;;0.93;;
26191;SDS011;13935;55.672;37.764;2022-09-09T07:12:50;1.35;;;0.95;;
26191;SDS011;13935;55.672;37.764;2022-09-09T07:15:04;1.77;;;1.00;;
26191;SDS011;13935;55.672;37.764;2022-09-09T07:16:08;2.70;;;1.02;;
26191;SDS011;13935;55.672;37.764;2022-09-09T07:17:12;1.38;;;0.75;;
26191;SDS011;13935;55.672;37.764;2022-09-09T07:18:14;2.35;;;0.80;;
26191;SDS011;13935;55.672;37.764;2022-09-09T07:19:16;1.23;;;0.65;;
26191;SDS011;13935;55.672;37.764;2022-09-09T07:20:20;2.33;;;0.80;;
26191;SDS011;13935;55.672;37.764;2022-09-09T07:21:24;0.98;;;0.60;;
26191;SDS011;13935;55.672;37.764;2022-09-09T07:22:28;2.28;;;0.80;;
26191;SDS011;13935;55.672;37.764;2022-09-09T07:23:32;1.23;;;0.73;;
26191;SDS011;13935;55.672;37.764;2022-09-09T07:24:38;2.35;;;0.70;;
26191;SDS011;13935;55.672;37.764;2022-09-09T07:25:44;2.88;;;0.80;;
26191;SDS011;13935;55.672;37.764;2022-09-09T07:26:48;2.13;;;0.77;;
26191;SDS011;13935;55.672;37.764;2022-09-09T07:27:50;1.38;;;0.85;;
26191;SDS011;13935;55.672;37.764;2022-09-09T07:28:53;2.38;;;0.90;;
26191;SDS011;13935;55.672;37.764;2022-09-09T07:29:58;5.50;;;3.25;;